createdAt,value
2023-05-10T00:00:16.198Z,7.31
2023-05-10T00:02:44.775Z,7.25
2023-05-10T00:05:12.757Z,7.17
2023-05-10T00:07:45.754Z,7.10
2023-05-10T00:10:13.949Z,7.04
2023-05-10T00:12:42.044Z,6.97
2023-05-10T00:15:11.051Z,7.04
2023-05-10T00:17:38.999Z,6.94
2023-05-10T00:20:08.153Z,6.88
2023-05-10T00:22:36.493Z,6.96
2023-05-10T00:25:07.184Z,6.97
2023-05-10T00:27:35.193Z,6.91
2023-05-10T00:30:03.197Z,6.90
2023-05-10T00:32:31.125Z,6.84
2023-05-10T00:34:59.078Z,6.81
2023-05-10T00:37:27.150Z,6.80
2023-05-10T00:39:55.082Z,6.74
2023-05-10T00:42:24.420Z,6.44
2023-05-10T00:44:52.333Z,6.23
2023-05-10T00:47:20.553Z,6.01
2023-05-10T00:49:48.487Z,5.90
2023-05-10T00:52:16.548Z,6.03
2023-05-10T00:54:44.702Z,6.22
2023-05-10T00:57:13.281Z,6.51
2023-05-10T00:59:42.791Z,6.51
2023-05-10T01:02:10.903Z,6.69
2023-05-10T01:04:39.741Z,6.81
2023-05-10T01:07:07.760Z,6.84
2023-05-10T01:09:36.783Z,7.03
2023-05-10T01:12:07.955Z,7.17
2023-05-10T01:14:37.330Z,7.03
2023-05-10T01:17:08.214Z,7.23
2023-05-10T01:19:39.064Z,7.20
2023-05-10T01:22:22.331Z,7.18
2023-05-10T01:25:25.489Z,7.03
2023-05-10T01:28:19.782Z,7.38
2023-05-10T01:31:24.895Z,7.49
2023-05-10T01:33:58.007Z,7.45
2023-05-10T01:36:33.250Z,7.52
2023-05-10T01:39:09.518Z,7.58
2023-05-10T01:41:44.937Z,7.54
2023-05-10T01:44:20.203Z,7.63
2023-05-10T01:46:53.603Z,7.62
2023-05-10T01:49:28.047Z,7.59
2023-05-10T01:52:01.531Z,7.60
2023-05-10T01:54:31.219Z,7.65
2023-05-10T01:57:05.862Z,7.47
2023-05-10T01:59:40.252Z,7.50
2023-05-10T02:02:09.204Z,7.56
2023-05-10T02:04:40.728Z,7.63
2023-05-10T02:07:10.224Z,7.66
2023-05-10T02:09:39.303Z,7.63
2023-05-10T02:12:09.413Z,7.54
2023-05-10T02:14:39.090Z,7.57
2023-05-10T02:17:09.749Z,7.52
2023-05-10T02:19:42.802Z,7.47
2023-05-10T02:22:11.899Z,7.48
2023-05-10T02:24:42.011Z,7.56
2023-05-10T02:27:11.964Z,7.56
2023-05-10T02:29:40.994Z,7.38
2023-05-10T02:32:10.886Z,7.32
2023-05-10T02:34:41.648Z,7.28
2023-05-10T02:37:09.985Z,7.29
2023-05-10T02:39:39.510Z,7.12
2023-05-10T02:42:08.539Z,7.21
2023-05-10T02:44:38.912Z,7.17
2023-05-10T02:47:07.014Z,7.24
2023-05-10T02:49:36.023Z,7.27
2023-05-10T02:52:10.073Z,7.14
2023-05-10T02:54:45.373Z,7.13
2023-05-10T02:57:20.378Z,7.30
2023-05-10T02:59:48.442Z,7.38
2023-05-10T03:02:16.446Z,7.38
2023-05-10T03:04:44.466Z,7.40
2023-05-10T03:07:13.880Z,7.32
2023-05-10T03:09:42.399Z,7.46
2023-05-10T03:12:16.530Z,7.43
2023-05-10T03:14:55.144Z,7.35
2023-05-10T03:17:27.931Z,7.34
2023-05-10T03:19:57.456Z,7.15
2023-05-10T03:22:32.415Z,7.19
2023-05-10T03:25:03.649Z,7.21
2023-05-10T03:27:32.481Z,7.18
2023-05-10T03:30:01.096Z,7.25
2023-05-10T03:32:31.348Z,7.43
2023-05-10T03:34:59.386Z,7.40
2023-05-10T03:37:28.696Z,7.28
2023-05-10T03:39:56.652Z,7.12
2023-05-10T03:42:24.605Z,7.28
2023-05-10T03:44:52.522Z,7.47
2023-05-10T03:47:20.892Z,7.30
2023-05-10T03:49:48.995Z,7.40
2023-05-10T03:52:17.022Z,7.35
2023-05-10T03:54:46.354Z,7.47
2023-05-10T03:57:14.219Z,7.47
2023-05-10T03:59:42.139Z,7.50
2023-05-10T04:02:10.079Z,7.59
2023-05-10T04:04:38.077Z,7.55
2023-05-10T04:07:06.065Z,7.38
2023-05-10T04:09:33.990Z,7.44
2023-05-10T04:12:03.653Z,7.72
2023-05-10T04:14:31.567Z,7.87
2023-05-10T04:16:59.476Z,8.13
2023-05-10T04:19:31.424Z,8.39
2023-05-10T04:21:59.416Z,8.56
2023-05-10T04:24:27.361Z,8.55
2023-05-10T04:26:57.798Z,8.70
2023-05-10T04:29:27.747Z,8.88
2023-05-10T04:31:55.658Z,9.08
2023-05-10T04:34:23.690Z,9.35
2023-05-10T04:36:51.640Z,9.65
2023-05-10T04:39:19.536Z,9.51
2023-05-10T04:41:47.598Z,9.49
2023-05-10T04:44:15.518Z,9.10
2023-05-10T04:46:44.898Z,9.33
2023-05-10T04:49:12.875Z,9.50
2023-05-10T04:51:40.752Z,9.33
2023-05-10T04:54:08.660Z,8.98
2023-05-10T04:56:36.574Z,9.20
2023-05-10T04:59:04.659Z,9.51
2023-05-10T05:01:32.705Z,9.53
2023-05-10T05:04:02.510Z,9.42
2023-05-10T05:06:30.464Z,9.51
2023-05-10T05:08:58.389Z,9.23
2023-05-10T05:11:26.640Z,9.49
2023-05-10T05:13:54.616Z,9.52
2023-05-10T05:16:22.564Z,9.45
2023-05-10T05:18:50.617Z,9.37
2023-05-10T05:21:20.929Z,9.77
2023-05-10T05:23:48.868Z,9.90
2023-05-10T05:26:17.069Z,10.07
2023-05-10T05:28:45.012Z,10.30
2023-05-10T05:31:13.172Z,10.44
2023-05-10T05:33:41.172Z,10.23
2023-05-10T05:36:09.349Z,10.29
2023-05-10T05:38:38.657Z,10.33
2023-05-10T05:41:07.062Z,10.80
2023-05-10T05:43:36.793Z,11.07
2023-05-10T05:46:06.251Z,11.25
2023-05-10T05:48:34.301Z,11.32
2023-05-10T05:51:02.838Z,11.12
2023-05-10T05:53:31.329Z,11.47
2023-05-10T05:56:00.989Z,11.81
2023-05-10T05:58:29.130Z,11.80
2023-05-10T06:00:57.131Z,11.79
2023-05-10T06:03:25.099Z,11.63
2023-05-10T06:05:53.145Z,11.99
2023-05-10T06:08:21.369Z,12.33
2023-05-10T06:10:49.354Z,12.44
2023-05-10T06:13:18.729Z,12.71
2023-05-10T06:15:46.630Z,12.62
2023-05-10T06:18:14.580Z,12.46
2023-05-10T06:20:44.443Z,12.74
2023-05-10T06:23:12.510Z,12.84
2023-05-10T06:25:40.435Z,12.44
2023-05-10T06:28:08.340Z,12.18
2023-05-10T06:30:38.338Z,12.61
2023-05-10T06:33:06.360Z,12.82
2023-05-10T06:35:34.752Z,12.72
2023-05-10T06:38:02.670Z,12.95
2023-05-10T06:40:30.627Z,13.17
2023-05-10T06:42:58.563Z,12.68
2023-05-10T06:45:26.482Z,12.64
2023-05-10T06:47:56.027Z,13.03
2023-05-10T06:50:23.943Z,12.66
2023-05-10T06:52:53.080Z,12.94
2023-05-10T06:55:21.387Z,13.33
2023-05-10T06:57:49.557Z,13.56
2023-05-10T07:00:18.600Z,13.77
2023-05-10T07:02:46.866Z,13.51
2023-05-10T07:05:16.418Z,13.73
2023-05-10T07:07:44.532Z,14.00
2023-05-10T07:10:12.509Z,14.44
2023-05-10T07:12:40.815Z,14.60
2023-05-10T07:15:10.461Z,14.08
2023-05-10T07:17:38.432Z,13.91
2023-05-10T07:20:07.674Z,14.11
2023-05-10T07:22:37.150Z,14.71
2023-05-10T07:25:05.933Z,14.91
2023-05-10T07:27:33.917Z,14.90
2023-05-10T07:30:02.561Z,15.20
2023-05-10T07:32:30.748Z,15.77
2023-05-10T07:34:58.722Z,15.69
2023-05-10T07:37:26.754Z,15.31
2023-05-10T07:39:57.170Z,14.89
2023-05-10T07:42:25.058Z,15.07
2023-05-10T07:44:53.299Z,15.50
2023-05-10T07:47:21.643Z,15.38
2023-05-10T07:49:49.566Z,15.76
2023-05-10T07:52:17.614Z,16.31
2023-05-10T07:54:45.671Z,15.67
2023-05-10T07:57:18.454Z,15.26
2023-05-10T07:59:46.783Z,15.75
2023-05-10T08:02:14.750Z,15.56
2023-05-10T08:04:42.865Z,15.25
2023-05-10T08:07:11.823Z,15.03
2023-05-10T08:09:39.780Z,14.77
2023-05-10T08:12:08.414Z,15.73
2023-05-10T08:14:38.005Z,16.39
2023-05-10T08:17:06.298Z,16.52
2023-05-10T08:19:34.222Z,16.74
2023-05-10T08:22:02.165Z,16.75
2023-05-10T08:24:30.111Z,16.86
2023-05-10T08:26:58.379Z,16.91
2023-05-10T08:29:26.797Z,17.42
2023-05-10T08:31:57.664Z,16.94
2023-05-10T08:34:26.266Z,17.37
2023-05-10T08:36:54.333Z,17.54
2023-05-10T08:39:29.840Z,17.49
2023-05-10T08:42:04.036Z,17.30
2023-05-10T08:44:34.078Z,17.42
2023-05-10T08:47:06.747Z,17.63
2023-05-10T08:49:35.932Z,17.36
2023-05-10T08:52:06.590Z,18.11
2023-05-10T08:54:35.451Z,18.40
2023-05-10T08:57:04.194Z,18.84
2023-05-10T08:59:32.365Z,18.80
2023-05-10T09:02:01.135Z,19.00
2023-05-10T09:04:31.648Z,18.80
2023-05-10T09:06:59.856Z,18.80
2023-05-10T09:09:29.271Z,18.62
2023-05-10T09:11:57.502Z,19.03
2023-05-10T09:14:26.847Z,19.02
2023-05-10T09:16:56.370Z,19.07
2023-05-10T09:19:24.404Z,18.43
2023-05-10T09:21:53.758Z,18.32
2023-05-10T09:24:21.731Z,18.57
2023-05-10T09:26:50.436Z,18.19
2023-05-10T09:29:18.443Z,17.17
2023-05-10T09:31:48.540Z,17.14
2023-05-10T09:34:21.338Z,17.19
2023-05-10T09:36:58.482Z,17.55
2023-05-10T09:39:36.151Z,18.41
2023-05-10T09:42:05.991Z,18.72
2023-05-10T09:44:34.655Z,18.67
2023-05-10T09:47:02.889Z,18.88
2023-05-10T09:49:31.437Z,19.19
2023-05-10T09:52:05.473Z,18.69
2023-05-10T09:54:33.825Z,18.72
2023-05-10T09:57:02.049Z,18.48
2023-05-10T09:59:31.470Z,18.05
2023-05-10T10:02:01.848Z,17.73
2023-05-10T10:04:30.231Z,18.20
2023-05-10T10:07:04.867Z,18.31
2023-05-10T10:09:33.494Z,18.58
2023-05-10T10:12:02.262Z,18.17
2023-05-10T10:14:31.078Z,18.77
2023-05-10T10:17:08.286Z,19.59
2023-05-10T10:19:38.060Z,19.15
2023-05-10T10:22:08.334Z,18.00
2023-05-10T10:24:36.307Z,17.71
2023-05-10T10:27:12.702Z,18.13
2023-05-10T10:29:50.251Z,17.90
2023-05-10T10:32:28.154Z,17.81
2023-05-10T10:34:57.429Z,17.80
2023-05-10T10:37:45.052Z,17.79
2023-05-10T10:40:26.668Z,17.79
2023-05-10T10:42:55.713Z,18.34
2023-05-10T10:45:25.180Z,18.56
2023-05-10T10:48:17.102Z,19.08
2023-05-10T10:50:46.929Z,19.05
2023-05-10T10:53:16.280Z,18.99
2023-05-10T10:55:50.803Z,18.97
2023-05-10T10:58:32.830Z,19.44
2023-05-10T11:01:16.585Z,19.82
2023-05-10T11:04:19.674Z,19.75
2023-05-10T11:06:47.671Z,19.56
2023-05-10T11:09:17.008Z,19.57
2023-05-10T11:11:53.115Z,19.41
2023-05-10T11:14:23.441Z,19.37
2023-05-10T11:16:51.512Z,19.85
2023-05-10T11:19:20.397Z,19.16
2023-05-10T11:21:49.869Z,19.21
2023-05-10T11:24:21.154Z,19.29
2023-05-10T11:26:52.913Z,19.17
2023-05-10T11:29:21.175Z,19.08
2023-05-10T11:31:50.465Z,18.79
2023-05-10T11:34:28.178Z,18.87
2023-05-10T11:36:57.281Z,18.68
2023-05-10T11:39:30.253Z,18.81
2023-05-10T11:41:58.612Z,19.04
2023-05-10T11:44:31.984Z,19.41
2023-05-10T11:47:01.000Z,19.78
2023-05-10T11:49:29.229Z,19.29
2023-05-10T11:52:06.271Z,18.97
2023-05-10T11:54:36.382Z,19.33
2023-05-10T11:57:04.861Z,19.05
2023-05-10T11:59:32.889Z,19.17
2023-05-10T12:02:01.196Z,19.50
2023-05-10T12:04:30.783Z,19.12
2023-05-10T12:06:58.831Z,19.28
2023-05-10T12:09:39.579Z,19.48
2023-05-10T12:12:12.602Z,19.30
2023-05-10T12:14:40.520Z,18.90
2023-05-10T12:17:08.941Z,18.60
2023-05-10T12:19:40.444Z,18.46
2023-05-10T12:22:08.479Z,18.40
2023-05-10T12:24:37.084Z,18.40
2023-05-10T12:27:09.233Z,18.28
2023-05-10T12:29:42.231Z,18.33
2023-05-10T12:32:11.218Z,18.22
2023-05-10T12:34:39.590Z,18.14
2023-05-10T12:37:07.616Z,18.04
2023-05-10T12:39:42.603Z,17.93
2023-05-10T12:42:11.172Z,18.21
2023-05-10T12:44:40.923Z,18.40
2023-05-10T12:47:08.942Z,18.57
2023-05-10T12:49:36.850Z,18.46
2023-05-10T12:52:04.942Z,18.21
2023-05-10T12:54:32.841Z,18.20
2023-05-10T12:57:00.851Z,17.79
2023-05-10T12:59:28.783Z,18.18
2023-05-10T13:01:59.308Z,18.15
2023-05-10T13:04:27.306Z,18.32
2023-05-10T13:06:57.145Z,18.64
2023-05-10T13:09:25.060Z,18.89
2023-05-10T13:11:54.524Z,18.78
2023-05-10T13:14:22.547Z,18.26
2023-05-10T13:16:50.528Z,18.15
2023-05-10T13:19:19.910Z,17.54
2023-05-10T13:21:47.964Z,17.63
2023-05-10T13:24:15.850Z,17.85
2023-05-10T13:26:43.777Z,17.50
2023-05-10T13:29:11.849Z,17.47
2023-05-10T13:31:39.765Z,17.62
2023-05-10T13:34:07.716Z,17.67
2023-05-10T13:36:36.979Z,17.26
2023-05-10T13:39:06.384Z,17.52
2023-05-10T13:41:35.042Z,17.46
2023-05-10T13:44:03.000Z,17.70
2023-05-10T13:46:31.415Z,17.69
2023-05-10T13:48:59.376Z,17.62
2023-05-10T13:51:27.274Z,17.58
2023-05-10T13:53:56.614Z,17.59
2023-05-10T13:56:24.617Z,17.36
2023-05-10T13:58:52.559Z,17.40
2023-05-10T14:01:20.600Z,17.53
2023-05-10T14:03:49.325Z,17.61
2023-05-10T14:06:17.386Z,17.52
2023-05-10T14:08:45.343Z,17.69
2023-05-10T14:11:14.663Z,17.64
2023-05-10T14:13:42.606Z,17.68
2023-05-10T14:16:10.532Z,17.86
2023-05-10T14:18:38.566Z,18.02
2023-05-10T14:21:06.619Z,17.76
2023-05-10T14:23:34.541Z,17.95
2023-05-10T14:26:02.811Z,17.95
2023-05-10T14:28:32.588Z,17.96
2023-05-10T14:31:00.627Z,17.79
2023-05-10T14:33:28.650Z,17.76
2023-05-10T14:35:57.664Z,17.60
2023-05-10T14:38:25.626Z,17.62
2023-05-10T14:40:53.540Z,17.78
2023-05-10T14:43:21.454Z,17.77
2023-05-10T14:45:50.795Z,17.89
2023-05-10T14:48:18.675Z,17.81
2023-05-10T14:50:47.581Z,17.45
2023-05-10T14:53:15.532Z,17.76
2023-05-10T14:55:43.584Z,17.95
2023-05-10T14:58:11.496Z,18.00
2023-05-10T15:00:39.379Z,18.05
2023-05-10T15:03:09.298Z,17.99
2023-05-10T15:05:38.348Z,17.83
2023-05-10T15:08:06.748Z,17.59
2023-05-10T15:10:34.836Z,17.44
2023-05-10T15:13:02.754Z,17.49
2023-05-10T15:15:30.736Z,17.62
2023-05-10T15:17:58.730Z,17.73
2023-05-10T15:20:28.188Z,17.43
2023-05-10T15:22:56.117Z,17.33
2023-05-10T15:25:24.845Z,17.18
2023-05-10T15:27:52.784Z,17.06
2023-05-10T15:30:20.845Z,17.04
2023-05-10T15:32:48.973Z,17.03
2023-05-10T15:35:17.974Z,16.85
2023-05-10T15:37:49.623Z,16.77
2023-05-10T15:40:17.653Z,16.71
2023-05-10T15:42:45.566Z,16.57
2023-05-10T15:45:13.582Z,16.54
2023-05-10T15:47:41.574Z,16.67
2023-05-10T15:50:10.325Z,16.60
2023-05-10T15:52:38.359Z,16.19
2023-05-10T15:55:13.087Z,15.97
2023-05-10T15:57:41.495Z,15.84
2023-05-10T16:00:11.033Z,16.05
2023-05-10T16:02:39.316Z,16.18
2023-05-10T16:05:07.818Z,15.99
2023-05-10T16:07:35.760Z,15.98
2023-05-10T16:10:04.222Z,15.96
2023-05-10T16:12:34.313Z,15.86
2023-05-10T16:15:02.279Z,15.83
2023-05-10T16:17:30.278Z,15.78
2023-05-10T16:19:58.254Z,15.54
2023-05-10T16:22:27.330Z,15.49
2023-05-10T16:24:55.280Z,15.39
2023-05-10T16:27:23.208Z,15.51
2023-05-10T16:29:52.522Z,15.31
2023-05-10T16:32:20.484Z,15.45
2023-05-10T16:34:50.238Z,15.34
2023-05-10T16:37:18.345Z,15.17
2023-05-10T16:39:46.545Z,15.20
2023-05-10T16:42:14.956Z,15.05
2023-05-10T16:44:42.923Z,14.99
2023-05-10T16:47:12.238Z,15.08
2023-05-10T16:49:40.131Z,15.02
2023-05-10T16:52:08.427Z,14.78
2023-05-10T16:54:36.392Z,14.74
2023-05-10T16:57:04.335Z,14.97
2023-05-10T16:59:32.290Z,14.83
2023-05-10T17:02:00.237Z,14.46
2023-05-10T17:04:29.655Z,14.51
2023-05-10T17:06:57.745Z,14.55
2023-05-10T17:09:25.904Z,14.43
2023-05-10T17:11:54.235Z,14.63
2023-05-10T17:14:22.175Z,14.74
2023-05-10T17:16:52.693Z,14.50
2023-05-10T17:19:20.814Z,14.65
2023-05-10T17:21:50.243Z,14.53
2023-05-10T17:24:18.212Z,14.55
2023-05-10T17:26:46.365Z,14.16
2023-05-10T17:29:16.244Z,14.43
2023-05-10T17:31:44.231Z,14.36
2023-05-10T17:34:12.230Z,14.31
2023-05-10T17:36:40.486Z,14.35
2023-05-10T17:39:09.806Z,14.34
2023-05-10T17:41:37.858Z,14.25
2023-05-10T17:44:05.824Z,13.81
2023-05-10T17:46:33.772Z,13.42
2023-05-10T17:49:01.721Z,13.38
2023-05-10T17:51:30.064Z,13.37
2023-05-10T17:53:57.971Z,13.46
2023-05-10T17:56:27.417Z,13.39
2023-05-10T17:58:55.411Z,13.36
2023-05-10T18:01:23.381Z,13.45
2023-05-10T18:03:51.921Z,13.29
2023-05-10T18:06:20.017Z,13.36
2023-05-10T18:08:47.927Z,13.33
2023-05-10T18:11:16.706Z,13.10
2023-05-10T18:13:46.013Z,13.03
2023-05-10T18:16:14.188Z,12.91
2023-05-10T18:18:42.124Z,13.18
2023-05-10T18:21:10.066Z,13.25
2023-05-10T18:23:38.018Z,13.36
2023-05-10T18:26:05.971Z,13.29
2023-05-10T18:28:33.904Z,12.97
2023-05-10T18:31:03.314Z,12.88
2023-05-10T18:33:31.280Z,12.99
2023-05-10T18:35:59.198Z,12.84
2023-05-10T18:38:27.194Z,12.63
2023-05-10T18:40:55.123Z,12.62
2023-05-10T18:43:23.048Z,12.47
2023-05-10T18:45:51.231Z,12.53
2023-05-10T18:48:20.645Z,12.36
2023-05-10T18:50:48.529Z,12.45
2023-05-10T18:53:16.497Z,12.54
2023-05-10T18:55:44.915Z,12.47
2023-05-10T18:58:14.458Z,12.46
2023-05-10T19:00:42.461Z,12.45
2023-05-10T19:03:10.491Z,12.31
2023-05-10T19:05:39.878Z,12.10
2023-05-10T19:08:07.812Z,11.93
2023-05-10T19:10:35.767Z,11.83
2023-05-10T19:13:03.657Z,12.19
2023-05-10T19:15:31.732Z,12.11
2023-05-10T19:17:59.748Z,12.04
2023-05-10T19:20:29.562Z,11.88
2023-05-10T19:23:09.660Z,11.67
2023-05-10T19:25:39.466Z,11.83
2023-05-10T19:28:09.581Z,11.83
2023-05-10T19:30:38.038Z,11.42
2023-05-10T19:33:06.079Z,11.42
2023-05-10T19:35:35.767Z,11.58
2023-05-10T19:38:05.169Z,11.54
2023-05-10T19:40:33.093Z,11.57
2023-05-10T19:43:01.509Z,11.49
2023-05-10T19:45:29.586Z,11.36
2023-05-10T19:47:57.577Z,11.26
2023-05-10T19:50:25.655Z,11.31
2023-05-10T19:52:53.599Z,11.34
2023-05-10T19:55:33.273Z,11.40
2023-05-10T19:58:01.943Z,11.28
2023-05-10T20:00:29.937Z,11.23
2023-05-10T20:02:57.870Z,10.88
2023-05-10T20:05:25.866Z,10.68
2023-05-10T20:07:54.000Z,10.71
2023-05-10T20:10:24.658Z,10.75
2023-05-10T20:12:55.232Z,10.62
2023-05-10T20:15:24.398Z,10.54
2023-05-10T20:17:53.726Z,10.49
2023-05-10T20:20:22.623Z,10.69
2023-05-10T20:22:50.988Z,10.70
2023-05-10T20:25:19.798Z,10.73
2023-05-10T20:27:47.680Z,10.72
2023-05-10T20:30:17.868Z,10.47
2023-05-10T20:32:46.232Z,10.51
2023-05-10T20:35:14.224Z,10.41
2023-05-10T20:37:42.200Z,10.56
2023-05-10T20:40:11.304Z,10.48
2023-05-10T20:42:39.231Z,10.45
2023-05-10T20:45:08.271Z,10.30
2023-05-10T20:47:38.070Z,10.15
2023-05-10T20:50:06.888Z,10.13
2023-05-10T20:52:34.825Z,10.26
2023-05-10T20:55:02.824Z,10.19
2023-05-10T20:57:30.727Z,10.09
2023-05-10T20:59:58.758Z,10.10
2023-05-10T21:02:26.723Z,10.23
2023-05-10T21:04:57.994Z,10.23
2023-05-10T21:07:26.299Z,10.33
2023-05-10T21:09:54.187Z,10.25
2023-05-10T21:12:22.066Z,9.98
2023-05-10T21:14:49.956Z,9.75
2023-05-10T21:17:19.991Z,9.90
2023-05-10T21:19:48.222Z,9.91
2023-05-10T21:22:17.708Z,9.73
2023-05-10T21:24:45.698Z,9.81
2023-05-10T21:27:13.645Z,9.90
2023-05-10T21:29:41.649Z,9.89
2023-05-10T21:32:09.919Z,9.85
2023-05-10T21:34:37.949Z,9.86
2023-05-10T21:37:05.904Z,9.81
2023-05-10T21:39:35.233Z,9.71
2023-05-10T21:42:03.814Z,9.64
2023-05-10T21:44:32.225Z,9.49
2023-05-10T21:47:00.176Z,9.76
2023-05-10T21:49:28.173Z,9.65
2023-05-10T21:51:56.113Z,9.68
2023-05-10T21:54:24.025Z,9.77
2023-05-10T21:56:53.329Z,9.70
2023-05-10T21:59:22.128Z,9.44
2023-05-10T22:01:50.167Z,9.09
2023-05-10T22:04:18.108Z,9.38
2023-05-10T22:06:46.189Z,9.21
2023-05-10T22:09:14.184Z,9.09
2023-05-10T22:11:42.097Z,9.04
2023-05-10T22:14:11.451Z,9.07
2023-05-10T22:16:39.414Z,9.33
2023-05-10T22:19:07.394Z,9.37
2023-05-10T22:21:35.336Z,9.36
2023-05-10T22:24:03.267Z,9.38
2023-05-10T22:26:31.344Z,9.35
2023-05-10T22:28:59.278Z,9.31
2023-05-10T22:31:28.633Z,9.27
2023-05-10T22:33:56.576Z,9.19
2023-05-10T22:36:24.485Z,8.98
2023-05-10T22:38:52.422Z,8.99
2023-05-10T22:41:20.335Z,9.06
2023-05-10T22:43:48.226Z,9.13
2023-05-10T22:46:16.307Z,9.18
2023-05-10T22:48:45.666Z,9.14
2023-05-10T22:51:13.573Z,9.24
2023-05-10T22:53:41.492Z,9.13
2023-05-10T22:56:09.463Z,8.96
2023-05-10T22:58:37.454Z,9.04
2023-05-10T23:01:05.738Z,9.06
2023-05-10T23:03:33.674Z,8.98
2023-05-10T23:06:02.983Z,8.86
2023-05-10T23:08:30.898Z,8.84
2023-05-10T23:10:58.913Z,8.86
2023-05-10T23:13:26.963Z,8.77
2023-05-10T23:15:54.952Z,8.84
2023-05-10T23:18:22.984Z,8.81
2023-05-10T23:20:50.944Z,8.84
2023-05-10T23:23:20.308Z,8.86
2023-05-10T23:25:48.375Z,8.82
2023-05-10T23:28:16.456Z,8.58
2023-05-10T23:30:44.373Z,8.50
2023-05-10T23:33:14.020Z,8.56
2023-05-10T23:35:41.922Z,8.71
2023-05-10T23:38:09.850Z,8.73
2023-05-10T23:40:39.130Z,8.78
2023-05-10T23:43:07.152Z,8.79
2023-05-10T23:45:35.304Z,8.83
2023-05-10T23:48:03.325Z,8.66
2023-05-10T23:50:31.384Z,8.77
2023-05-10T23:52:59.277Z,8.71
2023-05-10T23:55:27.335Z,8.67
2023-05-10T23:57:57.089Z,8.71
